createdAt,value
2022-11-09T00:00:04.950Z,6.94
2022-11-09T00:02:31.282Z,6.94
2022-11-09T00:04:57.729Z,6.96
2022-11-09T00:07:24.170Z,6.93
2022-11-09T00:09:50.572Z,6.91
2022-11-09T00:12:17.048Z,6.85
2022-11-09T00:14:43.454Z,6.80
2022-11-09T00:17:09.904Z,6.82
2022-11-09T00:19:36.375Z,6.77
2022-11-09T00:22:02.762Z,6.78
2022-11-09T00:24:29.152Z,6.77
2022-11-09T00:26:55.594Z,6.76
2022-11-09T00:29:21.996Z,6.74
2022-11-09T00:31:49.669Z,6.75
2022-11-09T00:34:16.088Z,6.74
2022-11-09T00:36:42.499Z,6.72
2022-11-09T00:39:08.908Z,6.70
2022-11-09T00:41:35.619Z,6.72
2022-11-09T00:44:02.018Z,6.70
2022-11-09T00:46:28.925Z,6.68
2022-11-09T00:48:56.023Z,6.66
2022-11-09T00:51:22.661Z,6.67
2022-11-09T00:53:53.754Z,6.68
2022-11-09T00:56:20.592Z,6.68
2022-11-09T00:58:47.280Z,6.66
2022-11-09T01:01:15.125Z,6.65
2022-11-09T01:03:43.304Z,6.62
2022-11-09T01:06:13.827Z,6.64
2022-11-09T01:08:42.696Z,6.62
2022-11-09T01:11:09.853Z,6.62
2022-11-09T01:13:36.886Z,6.59
2022-11-09T01:16:08.036Z,6.57
2022-11-09T01:18:35.995Z,6.55
2022-11-09T01:21:03.549Z,6.56
2022-11-09T01:23:30.905Z,6.57
2022-11-09T01:25:59.435Z,6.57
2022-11-09T01:28:25.859Z,6.56
2022-11-09T01:30:52.463Z,6.58
2022-11-09T01:33:19.179Z,6.59
2022-11-09T01:35:45.696Z,6.58
2022-11-09T01:38:12.265Z,6.58
2022-11-09T01:40:40.054Z,6.58
2022-11-09T01:43:13.942Z,6.57
2022-11-09T01:45:41.087Z,6.58
2022-11-09T01:48:13.620Z,6.54
2022-11-09T01:50:48.905Z,6.54
2022-11-09T01:53:24.781Z,6.54
2022-11-09T01:55:52.852Z,6.56
2022-11-09T01:58:23.269Z,6.57
2022-11-09T02:00:50.960Z,6.61
2022-11-09T02:03:36.388Z,6.65
2022-11-09T02:06:05.138Z,6.65
2022-11-09T02:08:31.601Z,6.65
2022-11-09T02:11:16.041Z,6.66
2022-11-09T02:13:48.175Z,6.65
2022-11-09T02:16:15.333Z,6.63
2022-11-09T02:18:48.679Z,6.64
2022-11-09T02:21:15.565Z,6.63
2022-11-09T02:23:42.038Z,6.63
2022-11-09T02:26:10.735Z,6.62
2022-11-09T02:28:39.172Z,6.60
2022-11-09T02:31:08.189Z,6.58
2022-11-09T02:33:45.110Z,6.54
2022-11-09T02:36:11.700Z,6.55
2022-11-09T02:38:38.159Z,6.51
2022-11-09T02:41:05.862Z,6.50
2022-11-09T02:43:32.280Z,6.52
2022-11-09T02:45:59.707Z,6.53
2022-11-09T02:48:26.185Z,6.51
2022-11-09T02:50:52.620Z,6.45
2022-11-09T02:53:20.523Z,6.44
2022-11-09T02:55:47.226Z,6.44
2022-11-09T02:58:13.809Z,6.39
2022-11-09T03:00:40.658Z,6.39
2022-11-09T03:03:07.070Z,6.38
2022-11-09T03:05:33.683Z,6.37
2022-11-09T03:08:02.557Z,6.36
2022-11-09T03:10:31.934Z,6.33
2022-11-09T03:12:58.475Z,6.32
2022-11-09T03:15:24.914Z,6.30
2022-11-09T03:17:51.379Z,6.31
2022-11-09T03:20:18.950Z,6.29
2022-11-09T03:22:48.027Z,6.28
2022-11-09T03:25:14.540Z,6.25
2022-11-09T03:27:41.040Z,6.21
2022-11-09T03:30:08.505Z,6.15
2022-11-09T03:32:35.108Z,6.10
2022-11-09T03:35:01.869Z,6.06
2022-11-09T03:37:28.311Z,6.03
2022-11-09T03:39:54.871Z,6.01
2022-11-09T03:42:21.323Z,6.01
2022-11-09T03:44:49.099Z,6.04
2022-11-09T03:47:15.450Z,6.07
2022-11-09T03:49:41.852Z,6.10
2022-11-09T03:52:08.238Z,6.13
2022-11-09T03:54:34.742Z,6.16
2022-11-09T03:57:01.106Z,6.20
2022-11-09T03:59:27.492Z,6.27
2022-11-09T04:01:53.926Z,6.32
2022-11-09T04:04:20.549Z,6.34
2022-11-09T04:06:46.974Z,6.37
2022-11-09T04:09:13.457Z,6.36
2022-11-09T04:11:40.016Z,6.38
2022-11-09T04:14:06.403Z,6.40
2022-11-09T04:16:33.181Z,6.37
2022-11-09T04:18:59.596Z,6.37
2022-11-09T04:21:26.025Z,6.37
2022-11-09T04:23:52.430Z,6.37
2022-11-09T04:26:18.882Z,6.34
2022-11-09T04:28:45.529Z,6.31
2022-11-09T04:31:11.997Z,6.28
2022-11-09T04:33:38.380Z,6.28
2022-11-09T04:36:05.173Z,6.30
2022-11-09T04:38:31.727Z,6.28
2022-11-09T04:41:01.905Z,6.25
2022-11-09T04:43:28.629Z,6.21
2022-11-09T04:45:55.823Z,6.17
2022-11-09T04:48:22.222Z,6.12
2022-11-09T04:50:48.631Z,6.11
2022-11-09T04:53:17.889Z,6.10
2022-11-09T04:55:44.591Z,6.05
2022-11-09T04:58:11.293Z,6.03
2022-11-09T05:00:38.287Z,5.99
2022-11-09T05:03:05.753Z,5.97
2022-11-09T05:05:36.276Z,5.94
2022-11-09T05:08:03.287Z,5.93
2022-11-09T05:10:29.992Z,5.94
2022-11-09T05:13:01.385Z,5.96
2022-11-09T05:15:27.887Z,5.98
2022-11-09T05:17:54.388Z,6.01
2022-11-09T05:20:20.835Z,6.07
2022-11-09T05:23:05.854Z,6.12
2022-11-09T05:25:32.281Z,6.15
2022-11-09T05:27:58.697Z,6.21
2022-11-09T05:30:25.155Z,6.25
2022-11-09T05:32:51.567Z,6.27
2022-11-09T05:35:18.047Z,6.31
2022-11-09T05:37:48.435Z,6.32
2022-11-09T05:40:15.634Z,6.36
2022-11-09T05:42:42.162Z,6.34
2022-11-09T05:45:40.248Z,6.37
2022-11-09T05:47:56.292Z,6.39
2022-11-09T05:50:22.884Z,6.40
2022-11-09T05:52:54.284Z,6.42
2022-11-09T05:55:20.674Z,6.40
2022-11-09T05:57:47.076Z,6.37
2022-11-09T06:00:13.840Z,6.34
2022-11-09T06:02:40.234Z,6.33
2022-11-09T06:05:06.884Z,6.34
2022-11-09T06:07:33.505Z,6.37
2022-11-09T06:09:59.934Z,6.39
2022-11-09T06:12:26.361Z,6.44
2022-11-09T06:14:52.763Z,6.44
2022-11-09T06:17:19.182Z,6.46
2022-11-09T06:19:45.602Z,6.50
2022-11-09T06:22:12.444Z,6.53
2022-11-09T06:24:38.916Z,6.57
2022-11-09T06:27:05.340Z,6.63
2022-11-09T06:29:31.855Z,6.65
2022-11-09T06:31:58.247Z,6.67
2022-11-09T06:34:24.639Z,6.69
2022-11-09T06:36:51.090Z,6.70
2022-11-09T06:39:17.481Z,6.70
2022-11-09T06:41:47.378Z,6.71
2022-11-09T06:44:14.723Z,6.72
2022-11-09T06:46:41.194Z,6.75
2022-11-09T06:49:08.124Z,6.77
2022-11-09T06:51:34.542Z,6.81
2022-11-09T06:54:00.904Z,6.84
2022-11-09T06:56:27.736Z,6.88
2022-11-09T06:58:54.332Z,6.92
2022-11-09T07:01:23.352Z,6.98
2022-11-09T07:03:49.826Z,7.01
2022-11-09T07:06:16.283Z,7.08
2022-11-09T07:08:42.885Z,7.18
2022-11-09T07:11:11.111Z,7.25
2022-11-09T07:13:38.103Z,7.35
2022-11-09T07:16:04.828Z,7.48
2022-11-09T07:18:31.260Z,7.62
2022-11-09T07:20:57.700Z,7.79
2022-11-09T07:23:24.172Z,7.92
2022-11-09T07:25:50.648Z,8.08
2022-11-09T07:28:17.384Z,8.24
2022-11-09T07:30:43.840Z,8.37
2022-11-09T07:33:12.750Z,8.46
2022-11-09T07:35:39.128Z,8.51
2022-11-09T07:38:05.962Z,8.53
2022-11-09T07:40:32.557Z,8.54
2022-11-09T07:42:59.653Z,8.58
2022-11-09T07:45:27.170Z,8.65
2022-11-09T07:47:57.803Z,8.69
2022-11-09T07:50:24.678Z,8.80
2022-11-09T07:52:51.186Z,8.92
2022-11-09T07:55:17.867Z,9.06
2022-11-09T07:57:44.369Z,9.19
2022-11-09T08:00:11.443Z,9.27
2022-11-09T08:02:40.871Z,9.36
2022-11-09T08:05:07.400Z,9.43
2022-11-09T08:07:34.330Z,9.49
2022-11-09T08:10:00.796Z,9.53
2022-11-09T08:12:27.793Z,9.54
2022-11-09T08:14:54.646Z,9.56
2022-11-09T08:17:21.225Z,9.60
2022-11-09T08:19:47.631Z,9.67
2022-11-09T08:22:14.313Z,9.70
2022-11-09T08:24:40.935Z,9.78
2022-11-09T08:27:07.538Z,9.82
2022-11-09T08:29:34.013Z,9.89
2022-11-09T08:32:01.219Z,9.92
2022-11-09T08:34:27.884Z,9.94
2022-11-09T08:36:54.328Z,9.96
2022-11-09T08:39:23.062Z,9.99
2022-11-09T08:41:49.471Z,10.02
2022-11-09T08:44:15.978Z,10.05
2022-11-09T08:46:42.443Z,10.11
2022-11-09T08:49:08.900Z,10.16
2022-11-09T08:51:35.311Z,10.21
2022-11-09T08:54:02.705Z,10.26
2022-11-09T08:56:29.101Z,10.29
2022-11-09T08:58:55.497Z,10.33
2022-11-09T09:01:22.040Z,10.31
2022-11-09T09:03:51.447Z,10.32
2022-11-09T09:06:17.837Z,10.33
2022-11-09T09:08:44.264Z,10.36
2022-11-09T09:11:10.837Z,10.37
2022-11-09T09:13:42.890Z,10.44
2022-11-09T09:16:10.823Z,10.50
2022-11-09T09:18:37.617Z,10.57
2022-11-09T09:21:07.639Z,10.60
2022-11-09T09:23:34.222Z,10.64
2022-11-09T09:26:00.699Z,10.68
2022-11-09T09:28:27.314Z,10.69
2022-11-09T09:30:54.085Z,10.69
2022-11-09T09:33:20.742Z,10.71
2022-11-09T09:35:47.205Z,10.76
2022-11-09T09:38:13.664Z,10.80
2022-11-09T09:40:49.412Z,10.86
2022-11-09T09:43:19.798Z,10.93
2022-11-09T09:45:51.771Z,11.03
2022-11-09T09:48:24.889Z,11.07
2022-11-09T09:50:53.778Z,11.16
2022-11-09T09:53:24.647Z,11.22
2022-11-09T09:55:55.247Z,11.26
2022-11-09T09:58:26.246Z,11.28
2022-11-09T10:00:55.184Z,11.30
2022-11-09T10:03:21.654Z,11.30
2022-11-09T10:05:55.978Z,11.31
2022-11-09T10:08:33.338Z,11.33
2022-11-09T10:11:25.852Z,11.38
2022-11-09T10:14:21.588Z,11.41
2022-11-09T10:16:56.943Z,11.47
2022-11-09T10:19:31.212Z,11.55
2022-11-09T10:22:05.643Z,11.61
2022-11-09T10:24:32.074Z,11.68
2022-11-09T10:26:59.797Z,11.72
2022-11-09T10:29:26.165Z,11.74
2022-11-09T10:31:54.423Z,11.78
2022-11-09T10:34:27.893Z,11.78
2022-11-09T10:36:58.105Z,11.79
2022-11-09T10:39:26.137Z,11.77
2022-11-09T10:42:11.554Z,11.77
2022-11-09T10:44:58.312Z,11.80
2022-11-09T10:47:50.887Z,11.81
2022-11-09T10:50:51.814Z,11.86
2022-11-09T10:53:37.680Z,11.91
2022-11-09T10:56:22.687Z,11.93
2022-11-09T10:59:26.580Z,12.01
2022-11-09T11:02:26.783Z,12.10
2022-11-09T11:05:17.560Z,12.15
2022-11-09T11:08:12.082Z,12.15
2022-11-09T11:11:33.726Z,12.09
2022-11-09T11:14:28.791Z,12.07
2022-11-09T11:17:24.441Z,12.02
2022-11-09T11:20:29.846Z,12.03
2022-11-09T11:23:20.176Z,12.04
2022-11-09T11:26:05.384Z,12.08
2022-11-09T11:29:10.800Z,12.09
2022-11-09T11:31:55.754Z,12.05
2022-11-09T11:34:59.288Z,12.01
2022-11-09T11:38:04.783Z,11.97
2022-11-09T11:41:08.728Z,11.93
2022-11-09T11:43:53.858Z,11.86
2022-11-09T11:46:44.443Z,11.86
2022-11-09T11:49:29.617Z,11.87
2022-11-09T11:52:23.907Z,11.89
2022-11-09T11:55:27.974Z,11.93
2022-11-09T11:58:19.120Z,11.96
2022-11-09T12:01:05.115Z,12.01
2022-11-09T12:03:58.281Z,12.05
2022-11-09T12:06:49.883Z,12.10
2022-11-09T12:09:44.160Z,12.10
2022-11-09T12:12:34.852Z,12.11
2022-11-09T12:15:23.352Z,12.13
2022-11-09T12:18:19.156Z,12.11
2022-11-09T12:21:19.315Z,12.12
2022-11-09T12:24:17.751Z,12.10
2022-11-09T12:27:31.662Z,12.12
2022-11-09T12:30:20.882Z,12.10
2022-11-09T12:33:12.448Z,12.11
2022-11-09T12:36:01.570Z,12.11
2022-11-09T12:38:55.979Z,12.13
2022-11-09T12:41:40.955Z,12.17
2022-11-09T12:44:26.105Z,12.19
2022-11-09T12:47:19.033Z,12.25
2022-11-09T12:50:04.462Z,12.25
2022-11-09T12:52:52.230Z,12.27
2022-11-09T12:55:37.198Z,12.32
2022-11-09T12:58:25.253Z,12.35
2022-11-09T13:01:33.288Z,12.39
2022-11-09T13:04:19.368Z,12.42
2022-11-09T13:07:07.529Z,12.44
2022-11-09T13:09:53.895Z,12.45
2022-11-09T13:12:40.740Z,12.44
2022-11-09T13:15:26.744Z,12.42
2022-11-09T13:18:35.044Z,12.40
2022-11-09T13:21:23.725Z,12.38
2022-11-09T13:24:31.929Z,12.39
2022-11-09T13:27:35.766Z,12.40
2022-11-09T13:30:28.309Z,12.38
2022-11-09T13:33:24.113Z,12.36
2022-11-09T13:36:09.857Z,12.33
2022-11-09T13:39:23.314Z,12.36
2022-11-09T13:42:43.653Z,12.35
2022-11-09T13:45:28.599Z,12.28
2022-11-09T13:48:24.535Z,12.29
2022-11-09T13:51:17.775Z,12.27
2022-11-09T13:54:04.305Z,12.26
2022-11-09T13:56:50.403Z,12.25
2022-11-09T13:59:39.397Z,12.23
2022-11-09T14:02:25.388Z,12.19
2022-11-09T14:05:27.211Z,12.12
2022-11-09T14:08:20.355Z,12.04
2022-11-09T14:11:13.437Z,11.97
2022-11-09T14:14:07.864Z,11.90
2022-11-09T14:17:15.977Z,11.87
2022-11-09T14:20:09.204Z,11.83
2022-11-09T14:22:56.684Z,11.81
2022-11-09T14:25:41.680Z,11.75
2022-11-09T14:28:27.938Z,11.73
2022-11-09T14:31:22.220Z,11.72
2022-11-09T14:34:07.729Z,11.67
2022-11-09T14:36:52.912Z,11.63
2022-11-09T14:39:38.748Z,11.61
2022-11-09T14:42:24.134Z,11.58
2022-11-09T14:45:16.018Z,11.56
2022-11-09T14:48:01.473Z,11.54
2022-11-09T14:50:47.259Z,10.35
2022-11-09T14:53:35.049Z,11.43
2022-11-09T14:56:21.595Z,11.38
2022-11-09T14:59:08.126Z,11.30
2022-11-09T15:02:19.491Z,11.28
2022-11-09T15:05:05.731Z,11.21
2022-11-09T15:07:51.200Z,11.21
2022-11-09T15:10:37.238Z,11.19
2022-11-09T15:13:51.543Z,11.15
2022-11-09T15:16:36.421Z,11.13
2022-11-09T15:19:21.598Z,11.05
2022-11-09T15:22:26.381Z,11.02
2022-11-09T15:25:30.367Z,10.96
2022-11-09T15:28:26.046Z,10.92
2022-11-09T15:31:13.425Z,10.85
2022-11-09T15:33:58.517Z,10.81
2022-11-09T15:36:46.078Z,10.78
2022-11-09T15:39:31.131Z,10.71
2022-11-09T15:42:16.230Z,10.66
2022-11-09T15:45:01.704Z,10.60
2022-11-09T15:47:54.413Z,10.58
2022-11-09T15:50:39.662Z,10.55
2022-11-09T15:53:25.183Z,10.50
2022-11-09T15:56:24.018Z,10.46
2022-11-09T15:59:18.003Z,10.46
2022-11-09T16:02:03.715Z,10.42
2022-11-09T16:04:48.630Z,10.40
2022-11-09T16:07:33.865Z,10.35
2022-11-09T16:10:27.215Z,10.33
2022-11-09T16:13:12.351Z,10.29
2022-11-09T16:16:04.608Z,10.25
2022-11-09T16:18:49.693Z,10.21
2022-11-09T16:21:34.904Z,10.19
2022-11-09T16:24:19.981Z,10.13
2022-11-09T16:27:12.566Z,10.06
2022-11-09T16:30:08.803Z,10.02
2022-11-09T16:32:53.622Z,9.99
2022-11-09T16:35:38.413Z,9.96
2022-11-09T16:38:23.626Z,9.93
2022-11-09T16:41:09.305Z,9.90
2022-11-09T16:43:56.490Z,9.88
2022-11-09T16:46:46.030Z,9.87
2022-11-09T16:49:31.683Z,9.84
2022-11-09T16:52:17.088Z,9.82
2022-11-09T16:55:02.387Z,9.78
2022-11-09T16:57:47.436Z,9.78
2022-11-09T17:00:55.802Z,9.74
2022-11-09T17:03:37.587Z,9.71
2022-11-09T17:06:22.825Z,9.65
2022-11-09T17:09:08.337Z,9.64
2022-11-09T17:11:53.344Z,9.62
2022-11-09T17:14:38.339Z,9.60
2022-11-09T17:17:23.179Z,9.62
2022-11-09T17:20:08.359Z,9.60
2022-11-09T17:22:53.905Z,9.59
2022-11-09T17:25:39.523Z,9.54
2022-11-09T17:28:25.364Z,9.55
2022-11-09T17:31:12.069Z,9.51
2022-11-09T17:34:01.180Z,9.51
2022-11-09T17:37:03.677Z,9.49
2022-11-09T17:39:49.602Z,9.47
2022-11-09T17:42:35.140Z,9.46
2022-11-09T17:45:20.129Z,9.47
2022-11-09T17:48:05.330Z,9.49
2022-11-09T17:50:50.723Z,9.39
2022-11-09T17:53:36.074Z,9.46
2022-11-09T17:56:21.488Z,9.44
2022-11-09T17:59:06.717Z,9.46
2022-11-09T18:01:52.172Z,9.43
2022-11-09T18:04:37.618Z,9.42
2022-11-09T18:07:22.636Z,9.41
2022-11-09T18:10:07.785Z,9.42
2022-11-09T18:12:53.111Z,9.40
2022-11-09T18:15:38.996Z,9.37
2022-11-09T18:18:25.277Z,9.37
2022-11-09T18:21:12.255Z,9.38
2022-11-09T18:23:57.520Z,9.38
2022-11-09T18:26:42.531Z,9.39
2022-11-09T18:29:27.957Z,9.36
2022-11-09T18:32:12.967Z,9.37
2022-11-09T18:34:57.929Z,9.37
2022-11-09T18:37:45.380Z,9.37
2022-11-09T18:40:30.835Z,9.38
2022-11-09T18:43:15.659Z,9.39
2022-11-09T18:46:02.321Z,9.39
2022-11-09T18:48:50.315Z,9.38
2022-11-09T18:51:35.269Z,9.38
2022-11-09T18:54:20.392Z,9.39
2022-11-09T18:57:05.478Z,9.40
2022-11-09T18:59:50.424Z,9.40
2022-11-09T19:02:35.330Z,9.41
2022-11-09T19:05:20.382Z,9.39
2022-11-09T19:08:05.369Z,9.41
2022-11-09T19:10:50.339Z,9.40
2022-11-09T19:13:35.173Z,9.40
2022-11-09T19:16:20.249Z,9.40
2022-11-09T19:19:05.229Z,9.41
2022-11-09T19:21:51.807Z,9.39
2022-11-09T19:24:36.855Z,9.39
2022-11-09T19:27:22.470Z,9.40
2022-11-09T19:30:09.800Z,9.38
2022-11-09T19:32:55.153Z,9.36
2022-11-09T19:35:39.932Z,9.40
2022-11-09T19:38:24.956Z,9.41
2022-11-09T19:41:10.027Z,9.43
2022-11-09T19:43:58.434Z,9.43
2022-11-09T19:46:44.265Z,9.43
2022-11-09T19:49:29.272Z,9.45
2022-11-09T19:52:14.520Z,9.45
2022-11-09T19:54:59.436Z,9.45
2022-11-09T19:57:44.432Z,9.44
2022-11-09T20:00:29.370Z,9.43
2022-11-09T20:03:14.231Z,9.42
2022-11-09T20:05:59.176Z,9.44
2022-11-09T20:08:44.030Z,9.41
2022-11-09T20:11:47.795Z,9.41
2022-11-09T20:14:32.920Z,9.42
2022-11-09T20:17:17.882Z,9.42
2022-11-09T20:20:02.920Z,9.43
2022-11-09T20:22:47.991Z,9.44
2022-11-09T20:25:33.355Z,9.43
2022-11-09T20:28:18.506Z,9.41
2022-11-09T20:31:19.376Z,9.43
2022-11-09T20:34:04.825Z,9.43
2022-11-09T20:36:49.942Z,9.43
2022-11-09T20:39:35.394Z,9.43
2022-11-09T20:42:20.253Z,9.42
2022-11-09T20:45:05.507Z,9.42
2022-11-09T20:48:07.658Z,9.42
2022-11-09T20:50:55.647Z,9.42
2022-11-09T20:53:40.570Z,9.44
2022-11-09T20:56:25.430Z,9.44
2022-11-09T20:59:10.507Z,9.39
2022-11-09T21:01:55.489Z,9.41
2022-11-09T21:04:40.336Z,9.40
2022-11-09T21:07:25.261Z,9.38
2022-11-09T21:10:10.270Z,9.39
2022-11-09T21:12:55.727Z,9.40
2022-11-09T21:15:40.684Z,9.40
2022-11-09T21:18:26.378Z,9.40
2022-11-09T21:21:15.945Z,9.38
2022-11-09T21:24:19.719Z,9.38
2022-11-09T21:27:24.527Z,9.37
2022-11-09T21:30:10.040Z,9.40
2022-11-09T21:32:55.212Z,9.39
2022-11-09T21:35:40.279Z,9.39
2022-11-09T21:38:25.218Z,9.41
2022-11-09T21:41:29.058Z,9.43
2022-11-09T21:44:14.252Z,9.43
2022-11-09T21:46:59.812Z,9.44
2022-11-09T21:49:44.951Z,9.44
2022-11-09T21:52:29.930Z,9.42
2022-11-09T21:55:14.770Z,9.41
2022-11-09T21:58:00.784Z,9.41
2022-11-09T22:00:45.762Z,9.41
2022-11-09T22:03:30.529Z,9.40
2022-11-09T22:06:15.759Z,9.39
2022-11-09T22:09:00.821Z,9.40
2022-11-09T22:12:04.639Z,9.41
2022-11-09T22:15:08.741Z,9.40
2022-11-09T22:17:54.390Z,9.39
2022-11-09T22:20:54.717Z,9.38
2022-11-09T22:23:39.673Z,9.37
2022-11-09T22:26:24.851Z,9.37
2022-11-09T22:29:09.655Z,9.37
2022-11-09T22:31:54.605Z,9.34
2022-11-09T22:34:39.460Z,9.33
2022-11-09T22:37:24.459Z,9.33
2022-11-09T22:40:09.662Z,9.31
2022-11-09T22:42:56.012Z,9.32
2022-11-09T22:45:41.105Z,9.31
2022-11-09T22:48:25.905Z,9.31
2022-11-09T22:51:15.708Z,9.32
2022-11-09T22:54:00.887Z,9.32
2022-11-09T22:56:45.717Z,9.33
2022-11-09T22:59:30.739Z,9.33
2022-11-09T23:02:15.767Z,9.29
2022-11-09T23:05:00.698Z,9.22
2022-11-09T23:07:46.238Z,9.22
2022-11-09T23:10:31.395Z,9.23
2022-11-09T23:13:16.656Z,9.26
2022-11-09T23:16:04.633Z,9.27
2022-11-09T23:18:55.972Z,9.30
2022-11-09T23:21:41.255Z,9.32
2022-11-09T23:24:44.967Z,9.32
2022-11-09T23:27:30.006Z,9.34
2022-11-09T23:30:15.551Z,9.35
2022-11-09T23:33:01.646Z,9.35
2022-11-09T23:35:46.764Z,9.34
2022-11-09T23:38:32.564Z,9.34
2022-11-09T23:41:18.046Z,9.34
2022-11-09T23:44:03.359Z,9.34
2022-11-09T23:46:48.315Z,9.33
2022-11-09T23:49:33.280Z,9.29
2022-11-09T23:52:18.368Z,9.29
2022-11-09T23:55:03.748Z,9.28
2022-11-09T23:57:48.838Z,9.28
